Time;durP1;ratioP1;P1;durP2;ratioP2;P2;SDS_P1;SDS_P2;PMS_P1;PMS_P2;Temp;Humidity;BMP_temperature;BMP_pressure;BME280_temperature;BME280_humidity;BME280_pressure;Samples;Min_cycle;Max_cycle;Signal;HPM_P1;HPM_P2
2021/10/31 00:02:42;;;;;;;;;;;8.00;99.90;;;;;;8332165;28;19916;-64
2021/10/31 00:06:42;;;;;;;;;;;8.20;99.90;;;;;;8331941;28;19905;-64
2021/10/31 00:10:43;;;;;;;;;;;8.10;99.90;;;;;;8331932;28;19913;-64
2021/10/31 00:14:43;;;;;;;;;;;8.10;99.90;;;;;;8331548;28;19945;-64
2021/10/31 00:18:44;;;;;;;;;;;8.20;99.90;;;;;;8331035;28;19952;-64
2021/10/31 00:22:47;;;;;;;;;;;8.40;99.90;;;;;;8313744;28;19912;-64
2021/10/31 00:26:47;;;;;;;;;;;8.20;99.90;;;;;;8313265;28;19912;-64
2021/10/31 00:30:48;;;;;;;;;;;8.20;99.90;;;;;;8331030;28;20373;-64
2021/10/31 00:34:48;;;;;;;;;;;8.10;99.90;;;;;;8331101;28;19912;-64
2021/10/31 00:38:49;;;;;;;;;;;8.20;99.90;;;;;;8330728;28;19909;-65
2021/10/31 00:42:49;;;;;;;;;;;8.20;99.90;;;;;;8330939;28;19905;-65
2021/10/31 00:46:50;;;;;;;;;;;8.30;99.90;;;;;;8329431;28;19948;-64
2021/10/31 00:50:51;;;;;;;;;;;8.10;99.90;;;;;;8330732;28;19909;-65
2021/10/31 00:54:51;;;;;;;;;;;8.20;99.90;;;;;;8330505;28;19917;-65
2021/10/31 00:58:52;;;;;;;;;;;8.10;99.90;;;;;;8329855;28;20410;-64
2021/10/31 01:02:53;;;;;;;;;;;8.10;99.90;;;;;;8312639;28;20292;-64
2021/10/31 01:07:03;;;;;;;;;;;8.20;99.90;;;;;;8330239;28;19916;-64
2021/10/31 01:11:26;;;;;;;;;;;8.20;99.90;;;;;;8330229;28;20373;-65
2021/10/31 01:15:42;;;;;;;;;;;8.50;99.90;;;;;;8329748;28;19905;-63
2021/10/31 01:19:57;;;;;;;;;;;8.50;99.90;;;;;;8329507;28;19913;-64
2021/10/31 01:24:10;;;;;;;;;;;8.40;99.90;;;;;;8330146;28;19940;-64
2021/10/31 01:28:10;;;;;;;;;;;8.30;99.90;;;;;;8329396;28;19909;-65
2021/10/31 01:32:19;;;;;;;;;;;8.30;99.90;;;;;;8311485;28;19963;-64
2021/10/31 01:36:19;;;;;;;;;;;8.40;99.90;;;;;;8329387;28;20369;-64
2021/10/31 01:40:20;;;;;;;;;;;8.50;99.90;;;;;;8328944;28;19915;-64
2021/10/31 01:44:39;;;;;;;;;;;8.50;99.90;;;;;;8328843;28;20301;-64
2021/10/31 01:48:51;;;;;;;;;;;8.60;99.90;;;;;;8328582;28;19941;-64
2021/10/31 01:52:59;;;;;;;;;;;8.70;99.90;;;;;;8328696;28;19919;-64
2021/10/31 01:57:01;;;;;;;;;;;8.50;99.90;;;;;;8328375;28;19917;-63
2021/10/31 02:01:02;;;;;;;;;;;8.30;99.90;;;;;;8328262;28;19909;-64
2021/10/31 02:05:04;;;;;;;;;;;8.10;99.90;;;;;;8328420;28;19905;-65
2021/10/31 02:09:05;;;;;;;;;;;8.20;99.90;;;;;;8328132;28;20270;-64
2021/10/31 02:13:07;;;;;;;;;;;8.10;99.90;;;;;;8327956;28;19932;-64
2021/10/31 02:17:08;;;;;;;;;;;7.90;99.90;;;;;;8327586;28;19947;-64
2021/10/31 02:21:10;;;;;;;;;;;7.70;99.90;;;;;;8327966;28;19909;-64
2021/10/31 02:25:10;;;;;;;;;;;7.80;99.90;;;;;;8327679;28;20374;-64
2021/10/31 02:29:11;;;;;;;;;;;8.10;99.90;;;;;;8309776;28;19945;-64
2021/10/31 02:33:11;;;;;;;;;;;8.10;99.90;;;;;;8327606;28;20057;-65
2021/10/31 02:37:12;;;;;;;;;;;8.10;99.90;;;;;;8327386;28;19908;-64
2021/10/31 02:41:13;;;;;;;;;;;8.30;99.90;;;;;;8327319;28;19913;-64
2021/10/31 02:45:13;;;;;;;;;;;8.20;99.90;;;;;;8327371;28;19905;-64
2021/10/31 02:49:14;;;;;;;;;;;8.10;99.90;;;;;;8327001;28;19941;-64
2021/10/31 02:53:36;;;;;;;;;;;8.20;99.90;;;;;;8327158;28;19905;-64
2021/10/31 02:57:45;;;;;;;;;;;8.20;99.90;;;;;;8326949;28;20381;-64
2021/10/31 03:01:46;;;;;;;;;;;8.00;99.90;;;;;;8326819;28;19909;-65
2021/10/31 03:05:52;;;;;;;;;;;8.00;99.90;;;;;;8327180;28;19928;-64
2021/10/31 03:09:52;;;;;;;;;;;7.90;99.90;;;;;;8326532;28;20376;-64
2021/10/31 03:13:53;;;;;;;;;;;7.70;99.90;;;;;;8333404;28;19912;-65
2021/10/31 03:17:53;;;;;;;;;;;7.80;99.90;;;;;;8315561;28;19905;-64
2021/10/31 03:21:53;;;;;;;;;;;7.80;99.90;;;;;;8333208;28;19909;-63
2021/10/31 03:25:56;;;;;;;;;;;7.70;99.90;;;;;;8333461;28;19992;-64
2021/10/31 03:29:56;;;;;;;;;;;7.70;99.90;;;;;;8332959;28;20388;-64
2021/10/31 03:33:57;;;;;;;;;;;7.90;99.90;;;;;;8332853;28;19905;-64
2021/10/31 03:37:57;;;;;;;;;;;7.80;99.90;;;;;;8332656;28;19912;-64
2021/10/31 03:41:59;;;;;;;;;;;7.50;99.90;;;;;;8332649;28;19909;-65
2021/10/31 03:46:00;;;;;;;;;;;7.20;99.90;;;;;;8315240;28;19905;-64
2021/10/31 03:50:00;;;;;;;;;;;6.90;99.90;;;;;;8314610;28;20429;-64
2021/10/31 03:54:01;;;;;;;;;;;7.00;99.90;;;;;;8332276;28;19913;-65
2021/10/31 03:58:01;;;;;;;;;;;6.90;99.90;;;;;;8314427;28;19982;-64
2021/10/31 04:02:02;;;;;;;;;;;6.80;99.90;;;;;;8331937;28;19913;-64
2021/10/31 04:06:03;;;;;;;;;;;6.90;99.90;;;;;;8332355;28;19955;-63
2021/10/31 04:10:04;;;;;;;;;;;6.90;99.90;;;;;;8313975;28;19905;-64
2021/10/31 04:14:05;;;;;;;;;;;6.80;99.90;;;;;;8331697;28;20306;-64
2021/10/31 04:18:05;;;;;;;;;;;6.70;99.90;;;;;;8331259;28;19909;-64
2021/10/31 04:22:06;;;;;;;;;;;6.80;99.90;;;;;;8331190;28;19990;-64
2021/10/31 04:26:06;;;;;;;;;;;6.60;99.90;;;;;;8331596;28;19905;-64
2021/10/31 04:30:08;;;;;;;;;;;6.40;99.90;;;;;;8331152;28;19967;-65
2021/10/31 04:34:08;;;;;;;;;;;6.30;99.90;;;;;;8331096;28;20343;-64
2021/10/31 04:38:19;;;;;;;;;;;6.40;99.90;;;;;;8330912;28;19909;-64
2021/10/31 04:42:20;;;;;;;;;;;6.40;99.90;;;;;;8313070;28;20383;-63
2021/10/31 04:46:20;;;;;;;;;;;6.50;99.90;;;;;;8331236;28;19905;-63
2021/10/31 04:50:20;;;;;;;;;;;6.50;99.90;;;;;;8330723;28;19905;-64
2021/10/31 04:54:21;;;;;;;;;;;6.60;99.90;;;;;;8359507;22;19920;-63
2021/10/31 04:58:22;;;;;;;;;;;6.40;99.90;;;;;;8362364;28;19913;-63
2021/10/31 05:02:22;;;;;;;;;;;6.20;99.90;;;;;;8363060;28;20380;-63
2021/10/31 05:06:23;;;;;;;;;;;6.40;99.90;;;;;;8345399;28;19912;-62
2021/10/31 05:10:24;;;;;;;;;;;6.20;99.90;;;;;;8344540;28;19908;-63
2021/10/31 05:14:25;;;;;;;;;;;6.00;99.90;;;;;;8362341;28;20376;-63
2021/10/31 05:18:25;;;;;;;;;;;6.10;99.90;;;;;;8361891;28;19913;-63
2021/10/31 05:22:26;;;;;;;;;;;6.10;99.90;;;;;;8362545;28;19909;-62
2021/10/31 05:26:26;;;;;;;;;;;6.10;99.90;;;;;;8362634;28;20372;-63
2021/10/31 05:30:27;;;;;;;;;;;6.20;99.90;;;;;;8362356;28;19905;-63
2021/10/31 05:34:28;;;;;;;;;;;6.10;99.90;;;;;;8361608;28;19904;-63
2021/10/31 05:38:28;;;;;;;;;;;6.00;99.90;;;;;;8361787;28;19909;-62
2021/10/31 05:42:29;;;;;;;;;;;5.80;99.90;;;;;;8362083;28;19905;-63
2021/10/31 05:46:31;;;;;;;;;;;5.80;99.90;;;;;;8362027;28;19909;-63
2021/10/31 05:50:32;;;;;;;;;;;5.90;99.90;;;;;;8376770;28;19905;-62
2021/10/31 05:54:33;;;;;;;;;;;5.80;99.90;;;;;;8361383;28;19913;-63
2021/10/31 05:58:33;;;;;;;;;;;5.70;99.90;;;;;;8361308;28;19920;-62
2021/10/31 06:02:34;;;;;;;;;;;5.60;99.90;;;;;;8360680;28;19905;-63
2021/10/31 06:06:35;;;;;;;;;;;5.70;99.90;;;;;;8361010;28;19915;-63
2021/10/31 06:10:35;;;;;;;;;;;5.80;99.90;;;;;;8361110;28;19908;-62
2021/10/31 06:14:36;;;;;;;;;;;5.80;99.90;;;;;;8360207;28;19908;-63
2021/10/31 06:18:36;;;;;;;;;;;5.80;99.90;;;;;;8359426;28;19917;-63
2021/10/31 06:22:37;;;;;;;;;;;5.90;99.90;;;;;;8359947;28;19987;-63
2021/10/31 06:26:37;;;;;;;;;;;5.90;99.90;;;;;;8359579;28;20372;-63
2021/10/31 06:30:38;;;;;;;;;;;5.90;99.90;;;;;;8359653;28;20395;-62
2021/10/31 06:34:38;;;;;;;;;;;6.00;99.90;;;;;;8340251;28;19966;-63
2021/10/31 06:38:39;;;;;;;;;;;6.00;99.90;;;;;;8359895;28;19963;-63
2021/10/31 06:42:39;;;;;;;;;;;6.30;99.90;;;;;;8360957;28;19904;-63
2021/10/31 06:46:40;;;;;;;;;;;6.30;99.90;;;;;;8358418;28;19908;-63
2021/10/31 06:50:40;;;;;;;;;;;6.40;99.90;;;;;;8359341;28;19915;-63
2021/10/31 06:54:41;;;;;;;;;;;6.50;99.90;;;;;;8353152;28;19913;-63
2021/10/31 06:58:42;;;;;;;;;;;6.60;99.90;;;;;;8356322;28;20322;-63
2021/10/31 07:02:42;;;;;;;;;;;6.80;99.90;;;;;;8340210;28;19912;-63
2021/10/31 07:06:42;;;;;;;;;;;7.30;99.90;;;;;;8359439;28;20273;-63
2021/10/31 07:10:43;;;;;;;;;;;7.30;99.90;;;;;;8342170;28;19912;-62
2021/10/31 07:14:43;;;;;;;;;;;7.60;99.90;;;;;;8357920;28;19955;-63
2021/10/31 07:18:44;;;;;;;;;;;7.80;99.90;;;;;;8357358;28;20593;-63
2021/10/31 07:22:44;;;;;;;;;;;8.00;99.90;;;;;;8357625;28;20303;-63
2021/10/31 07:26:45;;;;;;;;;;;8.20;99.90;;;;;;8339597;28;19912;-63
2021/10/31 07:30:45;;;;;;;;;;;8.40;99.90;;;;;;8343525;28;19920;-63
2021/10/31 07:34:46;;;;;;;;;;;8.60;99.90;;;;;;8350927;28;19970;-63
2021/10/31 07:38:46;;;;;;;;;;;9.00;99.90;;;;;;8354737;28;20011;-63
2021/10/31 07:42:47;;;;;;;;;;;9.10;99.90;;;;;;8336534;28;19908;-63
2021/10/31 07:46:48;;;;;;;;;;;9.40;99.90;;;;;;8336297;28;19912;-63
2021/10/31 07:50:49;;;;;;;;;;;9.60;99.90;;;;;;8356929;28;20360;-63
2021/10/31 07:54:50;;;;;;;;;;;9.90;99.90;;;;;;8359117;28;19927;-63
2021/10/31 07:58:55;;;;;;;;;;;10.20;99.90;;;;;;8362947;28;19916;-63
2021/10/31 08:02:56;;;;;;;;;;;10.50;99.90;;;;;;8364126;28;20459;-63
2021/10/31 08:06:56;;;;;;;;;;;10.70;99.90;;;;;;8364701;28;19916;-63
2021/10/31 08:10:57;;;;;;;;;;;10.90;99.90;;;;;;8346525;28;19905;-63
2021/10/31 08:14:57;;;;;;;;;;;11.00;99.90;;;;;;8364628;28;19967;-63
2021/10/31 08:18:58;;;;;;;;;;;11.20;99.90;;;;;;8363387;28;19913;-63
2021/10/31 08:22:59;;;;;;;;;;;12.00;99.90;;;;;;8363987;28;19904;-63
2021/10/31 08:27:00;;;;;;;;;;;11.90;99.90;;;;;;8364204;28;19916;-64
2021/10/31 08:31:00;;;;;;;;;;;12.30;99.90;;;;;;8379465;28;19912;-63
2021/10/31 08:35:01;;;;;;;;;;;12.60;99.90;;;;;;8363273;28;19905;-63
2021/10/31 08:39:04;;;;;;;;;;;13.00;99.90;;;;;;8363556;28;19967;-63
2021/10/31 08:43:04;;;;;;;;;;;13.20;99.90;;;;;;8363348;28;19912;-63
2021/10/31 08:47:05;;;;;;;;;;;13.60;99.90;;;;;;8363603;28;19909;-63
2021/10/31 08:51:06;;;;;;;;;;;13.90;99.90;;;;;;8345713;28;19911;-64
2021/10/31 08:55:07;;;;;;;;;;;14.20;99.90;;;;;;8363536;28;19966;-64
2021/10/31 08:59:08;;;;;;;;;;;14.40;99.90;;;;;;8362532;28;19916;-63
2021/10/31 09:03:09;;;;;;;;;;;14.50;99.90;;;;;;8362078;28;19916;-63
2021/10/31 09:07:14;;;;;;;;;;;14.70;99.90;;;;;;8361643;28;20268;-63
2021/10/31 09:11:14;;;;;;;;;;;14.80;99.90;;;;;;8360860;28;19905;-63
2021/10/31 09:15:16;;;;;;;;;;;14.80;99.90;;;;;;8362222;28;19920;-63
2021/10/31 09:19:17;;;;;;;;;;;14.90;99.90;;;;;;8355412;28;19916;-62
2021/10/31 09:23:18;;;;;;;;;;;15.00;99.90;;;;;;8361454;28;19908;-62
2021/10/31 09:27:20;;;;;;;;;;;15.10;99.90;;;;;;8348221;28;19909;-62
2021/10/31 09:31:20;;;;;;;;;;;15.40;99.90;;;;;;8341844;28;19905;-62
2021/10/31 09:35:25;;;;;;;;;;;15.50;99.90;;;;;;8343238;28;19948;-63
2021/10/31 09:39:26;;;;;;;;;;;15.70;99.90;;;;;;8343264;28;19912;-62
2021/10/31 09:43:30;;;;;;;;;;;15.70;99.90;;;;;;8360150;28;19916;-62
2021/10/31 09:47:30;;;;;;;;;;;16.00;99.90;;;;;;8342613;28;19908;-62
2021/10/31 09:51:31;;;;;;;;;;;16.30;99.90;;;;;;8353358;28;20185;-62
2021/10/31 09:55:32;;;;;;;;;;;16.50;99.90;;;;;;8352748;28;20320;-62
2021/10/31 09:59:38;;;;;;;;;;;16.70;99.90;;;;;;8344807;28;19923;-62
2021/10/31 10:03:39;;;;;;;;;;;16.70;99.90;;;;;;8339078;28;19909;-62
2021/10/31 10:07:39;;;;;;;;;;;16.90;99.90;;;;;;8355212;28;19935;-62
2021/10/31 10:11:41;;;;;;;;;;;17.10;99.90;;;;;;8359780;28;19916;-63
2021/10/31 10:15:42;;;;;;;;;;;17.10;99.90;;;;;;8343343;28;20383;-64
2021/10/31 10:19:46;;;;;;;;;;;17.30;99.90;;;;;;8359882;28;19912;-64
2021/10/31 10:23:51;;;;;;;;;;;18.30;99.90;;;;;;8360534;28;19948;-64
2021/10/31 10:27:57;;;;;;;;;;;21.10;99.90;;;;;;8360053;28;19908;-64
2021/10/31 10:31:58;;;;;;;;;;;22.60;97.30;;;;;;8358648;28;19913;-64
2021/10/31 10:36:12;;;;;;;;;;;23.70;91.30;;;;;;8360039;28;19935;-65
2021/10/31 10:40:19;;;;;;;;;;;23.40;91.90;;;;;;8358299;28;19919;-64
2021/10/31 10:44:19;;;;;;;;;;;24.80;87.20;;;;;;8360641;28;20272;-64
2021/10/31 10:48:20;;;;;;;;;;;24.60;82.30;;;;;;8359630;28;19905;-64
2021/10/31 10:52:23;;;;;;;;;;;26.30;74.90;;;;;;8338523;28;19908;-63
2021/10/31 10:56:23;;;;;;;;;;;27.80;65.40;;;;;;8363165;22;20335;-67
2021/10/31 11:00:31;;;;;;;;;;;28.50;60.60;;;;;;8356846;28;19917;-68
2021/10/31 11:04:31;;;;;;;;;;;28.60;61.50;;;;;;8357657;28;19966;-67
2021/10/31 11:08:32;;;;;;;;;;;29.60;57.60;;;;;;8357270;28;19905;-68
2021/10/31 11:12:36;;;;;;;;;;;29.80;56.40;;;;;;8356979;28;20025;-68
2021/10/31 11:16:36;;;;;;;;;;;30.30;52.20;;;;;;8344556;28;19927;-68
2021/10/31 11:20:38;;;;;;;;;;;31.70;49.20;;;;;;8320880;28;19935;-68
2021/10/31 11:24:40;;;;;;;;;;;33.20;45.00;;;;;;8355523;28;20413;-68
2021/10/31 11:28:40;;;;;;;;;;;33.60;44.00;;;;;;8354164;28;19909;-67
2021/10/31 11:32:41;;;;;;;;;;;32.30;42.60;;;;;;8361341;28;20126;-68
2021/10/31 11:36:42;;;;;;;;;;;31.80;43.30;;;;;;8366079;28;20027;-67
2021/10/31 11:40:46;;;;;;;;;;;32.70;42.40;;;;;;8365561;28;19920;-68
2021/10/31 11:45:04;;;;;;;;;;;33.60;41.60;;;;;;8362199;28;19913;-68
2021/10/31 11:49:04;;;;;;;;;;;35.00;39.10;;;;;;8334925;28;19920;-68
2021/10/31 11:53:13;;;;;;;;;;;36.50;37.00;;;;;;8334758;28;19913;-69
2021/10/31 11:57:26;;;;;;;;;;;37.30;34.30;;;;;;8351020;28;19927;-68
2021/10/31 12:01:32;;;;;;;;;;;36.40;34.70;;;;;;8346310;28;19974;-67
2021/10/31 12:05:39;;;;;;;;;;;35.80;35.70;;;;;;8365006;28;19937;-68
2021/10/31 12:09:40;;;;;;;;;;;36.50;33.50;;;;;;8364430;28;20391;-68
2021/10/31 12:13:51;;;;;;;;;;;37.00;33.50;;;;;;8365388;28;19948;-68
2021/10/31 12:18:05;;;;;;;;;;;36.40;34.10;;;;;;8364345;28;19927;-69
2021/10/31 12:22:19;;;;;;;;;;;36.70;33.30;;;;;;8364559;28;20547;-69
2021/10/31 12:26:20;;;;;;;;;;;36.40;31.90;;;;;;8346764;28;19911;-69
2021/10/31 12:30:30;;;;;;;;;;;36.80;31.80;;;;;;8331156;28;19909;-68
2021/10/31 12:34:39;;;;;;;;;;;37.30;31.50;;;;;;8330661;28;19935;-69
2021/10/31 12:38:39;;;;;;;;;;;37.10;32.80;;;;;;8330868;28;20361;-68
2021/10/31 12:42:45;;;;;;;;;;;36.80;32.70;;;;;;8329900;28;19920;-68
2021/10/31 12:47:01;;;;;;;;;;;37.40;32.20;;;;;;8330926;28;19996;-68
2021/10/31 12:51:07;;;;;;;;;;;37.90;30.20;;;;;;8330856;28;19905;-68
2021/10/31 12:55:13;;;;;;;;;;;37.30;30.70;;;;;;8312887;28;19920;-68
2021/10/31 12:59:16;;;;;;;;;;;36.90;31.10;;;;;;8354045;28;19909;-68
2021/10/31 13:03:18;;;;;;;;;;;36.50;31.10;;;;;;8363327;28;19921;-68
2021/10/31 13:07:24;;;;;;;;;;;37.20;31.10;;;;;;8361484;28;20003;-69
2021/10/31 13:11:31;;;;;;;;;;;37.60;30.60;;;;;;8344474;28;19982;-69
2021/10/31 13:15:33;;;;;;;;;;;38.00;30.10;;;;;;8359344;28;19959;-68
2021/10/31 13:19:38;;;;;;;;;;;38.10;30.40;;;;;;8360556;28;20014;-68
2021/10/31 13:23:44;;;;;;;;;;;38.20;30.50;;;;;;8361144;28;19904;-68
2021/10/31 13:27:47;;;;;;;;;;;37.40;30.10;;;;;;8361587;28;19904;-68
2021/10/31 13:31:47;;;;;;;;;;;36.80;31.10;;;;;;8343572;28;19911;-68
2021/10/31 13:35:48;;;;;;;;;;;36.60;31.20;;;;;;8361573;28;19905;-68
2021/10/31 13:39:52;;;;;;;;;;;35.80;31.10;;;;;;8361197;28;19913;-68
2021/10/31 13:43:54;;;;;;;;;;;35.40;32.30;;;;;;8358821;28;19911;-69
2021/10/31 13:47:55;;;;;;;;;;;32.90;34.40;;;;;;8359865;28;20288;-68
2021/10/31 13:51:56;;;;;;;;;;;30.30;39.20;;;;;;8342751;28;20212;-68
2021/10/31 13:55:57;;;;;;;;;;;28.50;41.60;;;;;;8361060;28;19917;-68
2021/10/31 13:59:57;;;;;;;;;;;27.10;44.40;;;;;;8361351;28;19908;-67
2021/10/31 14:04:11;;;;;;;;;;;26.10;46.60;;;;;;8361525;28;19911;-67
2021/10/31 14:08:12;;;;;;;;;;;24.60;50.80;;;;;;8343212;28;19912;-67
2021/10/31 14:12:22;;;;;;;;;;;23.10;54.00;;;;;;8361072;28;19906;-68
2021/10/31 14:16:26;;;;;;;;;;;22.40;55.80;;;;;;8360922;28;19922;-69
2021/10/31 14:20:31;;;;;;;;;;;22.00;57.80;;;;;;8360747;28;20338;-68
2021/10/31 14:24:31;;;;;;;;;;;21.60;59.30;;;;;;8360817;28;19951;-68
2021/10/31 14:28:38;;;;;;;;;;;21.20;61.30;;;;;;8342674;28;20337;-67
2021/10/31 14:32:46;;;;;;;;;;;20.80;66.80;;;;;;8342907;28;19904;-68
2021/10/31 14:36:46;;;;;;;;;;;20.60;64.70;;;;;;8360622;28;19954;-68
2021/10/31 14:40:59;;;;;;;;;;;20.00;66.90;;;;;;8359734;28;19935;-68
2021/10/31 14:45:00;;;;;;;;;;;19.40;74.10;;;;;;8330638;28;20365;-68
2021/10/31 14:49:03;;;;;;;;;;;19.10;74.80;;;;;;8313977;28;19908;-67
2021/10/31 14:53:16;;;;;;;;;;;18.90;78.30;;;;;;8329573;28;19905;-68
2021/10/31 14:57:24;;;;;;;;;;;18.60;81.60;;;;;;8334508;28;19939;-67
2021/10/31 15:01:26;;;;;;;;;;;18.20;83.10;;;;;;8348211;28;20389;-68
2021/10/31 15:05:29;;;;;;;;;;;17.90;83.00;;;;;;8311121;28;19917;-68
2021/10/31 15:09:30;;;;;;;;;;;17.90;92.50;;;;;;8327156;28;19916;-67
2021/10/31 15:13:31;;;;;;;;;;;18.20;87.20;;;;;;8320934;28;19939;-67
2021/10/31 15:17:33;;;;;;;;;;;17.90;88.80;;;;;;8352639;28;20345;-67
2021/10/31 15:21:37;;;;;;;;;;;17.70;95.30;;;;;;8354150;28;19908;-68
2021/10/31 15:25:39;;;;;;;;;;;17.40;99.90;;;;;;8354862;28;19905;-68
2021/10/31 15:29:39;;;;;;;;;;;17.30;99.90;;;;;;8354985;28;19915;-67
2021/10/31 15:33:41;;;;;;;;;;;17.10;99.90;;;;;;8355133;28;19908;-67
2021/10/31 15:37:41;;;;;;;;;;;16.90;99.90;;;;;;8355248;28;19991;-68
2021/10/31 15:41:42;;;;;;;;;;;16.80;99.90;;;;;;8354963;28;19916;-67
2021/10/31 15:45:42;;;;;;;;;;;16.50;99.90;;;;;;8354594;28;19959;-67
2021/10/31 15:49:43;;;;;;;;;;;16.50;99.90;;;;;;8354578;28;20361;-67
2021/10/31 15:53:44;;;;;;;;;;;16.20;99.90;;;;;;8354823;28;19921;-67
2021/10/31 15:57:44;;;;;;;;;;;16.00;99.90;;;;;;8351486;28;19916;-68
2021/10/31 16:01:57;;;;;;;;;;;15.70;99.90;;;;;;8341388;28;19921;-67
2021/10/31 16:06:01;;;;;;;;;;;15.50;99.90;;;;;;8320146;28;19962;-67
2021/10/31 16:10:01;;;;;;;;;;;15.20;99.90;;;;;;8334153;28;19912;-67
2021/10/31 16:14:02;;;;;;;;;;;14.80;99.90;;;;;;8352191;28;19999;-68
2021/10/31 16:18:02;;;;;;;;;;;14.80;99.90;;;;;;8337716;28;19955;-67
2021/10/31 16:22:03;;;;;;;;;;;14.40;99.90;;;;;;8353140;28;19916;-67
2021/10/31 16:26:04;;;;;;;;;;;14.20;99.90;;;;;;8349647;28;19920;-68
2021/10/31 16:30:09;;;;;;;;;;;14.30;99.90;;;;;;8345785;28;20047;-67
2021/10/31 16:34:10;;;;;;;;;;;14.00;99.90;;;;;;8313685;28;19909;-68
2021/10/31 16:38:10;;;;;;;;;;;13.80;99.90;;;;;;8332453;28;19948;-68
2021/10/31 16:42:11;;;;;;;;;;;13.60;99.90;;;;;;8337007;28;19916;-67
2021/10/31 16:46:12;;;;;;;;;;;13.20;99.90;;;;;;8335151;28;19915;-68
2021/10/31 16:50:13;;;;;;;;;;;13.30;99.90;;;;;;8355848;28;20288;-67
2021/10/31 16:54:13;;;;;;;;;;;13.30;99.90;;;;;;8358404;28;20039;-67
2021/10/31 16:58:13;;;;;;;;;;;13.10;99.90;;;;;;8357525;28;20391;-67
2021/10/31 17:02:14;;;;;;;;;;;12.90;99.90;;;;;;8349655;28;20395;-68
2021/10/31 17:06:14;;;;;;;;;;;12.60;99.90;;;;;;8358498;28;19958;-67
2021/10/31 17:10:16;;;;;;;;;;;12.60;99.90;;;;;;8337624;28;19909;-68
2021/10/31 17:14:17;;;;;;;;;;;12.40;99.90;;;;;;8373849;28;20289;-67
2021/10/31 17:18:18;;;;;;;;;;;12.10;99.90;;;;;;8357272;28;20040;-67
2021/10/31 17:22:18;;;;;;;;;;;12.10;99.90;;;;;;8348952;28;19908;-66
2021/10/31 17:26:19;;;;;;;;;;;12.00;99.90;;;;;;8344484;28;19959;-66
2021/10/31 17:30:19;;;;;;;;;;;11.60;99.90;;;;;;8356391;28;19916;-66
2021/10/31 17:34:21;;;;;;;;;;;11.40;99.90;;;;;;8344861;28;19913;-66
2021/10/31 17:38:22;;;;;;;;;;;11.30;99.90;;;;;;8333236;28;19970;-67
2021/10/31 17:42:23;;;;;;;;;;;11.20;99.90;;;;;;8324178;28;19920;-67
2021/10/31 17:46:24;;;;;;;;;;;11.10;99.90;;;;;;8326909;28;19959;-67
2021/10/31 17:50:26;;;;;;;;;;;11.10;99.90;;;;;;8337149;28;20263;-66
2021/10/31 17:54:27;;;;;;;;;;;10.90;99.90;;;;;;8345099;28;19916;-66
2021/10/31 17:58:27;;;;;;;;;;;10.60;99.90;;;;;;8352632;28;19959;-66
2021/10/31 18:02:28;;;;;;;;;;;10.60;99.90;;;;;;8353974;28;20330;-66
2021/10/31 18:06:28;;;;;;;;;;;10.30;99.90;;;;;;8356540;28;20352;-66
2021/10/31 18:10:29;;;;;;;;;;;10.10;99.90;;;;;;8356481;28;19908;-67
2021/10/31 18:14:29;;;;;;;;;;;9.90;99.90;;;;;;8355969;28;19958;-66
2021/10/31 18:18:31;;;;;;;;;;;10.20;99.90;;;;;;8338514;28;19939;-66
2021/10/31 18:22:32;;;;;;;;;;;10.30;99.90;;;;;;8356666;28;19911;-66
2021/10/31 18:26:32;;;;;;;;;;;10.20;99.90;;;;;;8356250;28;19908;-66
2021/10/31 18:30:35;;;;;;;;;;;10.20;99.90;;;;;;8337760;28;19908;-66
2021/10/31 18:34:36;;;;;;;;;;;10.20;99.90;;;;;;8355712;28;19912;-66
2021/10/31 18:38:36;;;;;;;;;;;10.10;99.90;;;;;;8355172;28;19931;-66
2021/10/31 18:42:37;;;;;;;;;;;9.80;99.90;;;;;;8355093;28;19917;-66
2021/10/31 18:46:38;;;;;;;;;;;9.70;99.90;;;;;;8355184;28;19963;-66
2021/10/31 18:50:39;;;;;;;;;;;9.60;99.90;;;;;;8355294;28;19909;-66
2021/10/31 18:54:40;;;;;;;;;;;9.60;99.90;;;;;;8347072;28;20439;-66
2021/10/31 18:58:40;;;;;;;;;;;9.60;99.90;;;;;;8349213;28;19916;-66
2021/10/31 19:02:41;;;;;;;;;;;9.50;99.90;;;;;;8354240;28;19923;-66
2021/10/31 19:06:41;;;;;;;;;;;9.50;99.90;;;;;;8336186;28;20473;-66
2021/10/31 19:10:42;;;;;;;;;;;9.70;99.90;;;;;;8354691;28;19923;-66
2021/10/31 19:14:43;;;;;;;;;;;9.50;99.90;;;;;;8355433;28;20429;-66
2021/10/31 19:18:45;;;;;;;;;;;9.30;99.90;;;;;;8337073;28;19913;-66
2021/10/31 19:22:46;;;;;;;;;;;9.20;99.90;;;;;;8354559;28;19963;-66
2021/10/31 19:26:48;;;;;;;;;;;9.30;99.90;;;;;;8352386;28;19917;-66
2021/10/31 19:30:55;;;;;;;;;;;9.30;99.90;;;;;;8356541;22;19927;-61
2021/10/31 19:34:57;;;;;;;;;;;9.10;99.90;;;;;;8356088;28;20372;-63
2021/10/31 19:38:57;;;;;;;;;;;8.90;99.90;;;;;;8358025;28;19916;-62
2021/10/31 19:42:58;;;;;;;;;;;9.00;99.90;;;;;;8358688;28;19985;-62
2021/10/31 19:46:58;;;;;;;;;;;8.90;99.90;;;;;;8359103;28;19913;-62
2021/10/31 19:50:59;;;;;;;;;;;8.70;99.90;;;;;;8340625;28;19956;-62
2021/10/31 19:54:59;;;;;;;;;;;8.90;99.90;;;;;;8363089;28;20392;-62
2021/10/31 19:59:04;;;;;;;;;;;8.90;99.90;;;;;;8362945;28;19921;-62
2021/10/31 20:03:05;;;;;;;;;;;8.80;99.90;;;;;;8364509;28;19913;-62
2021/10/31 20:07:05;;;;;;;;;;;8.80;99.90;;;;;;8339163;28;19978;-62
2021/10/31 20:11:07;;;;;;;;;;;8.90;99.90;;;;;;8339214;28;20373;-62
2021/10/31 20:15:08;;;;;;;;;;;8.70;99.90;;;;;;8331238;28;20157;-62
2021/10/31 20:19:10;;;;;;;;;;;8.70;99.90;;;;;;8335140;28;19913;-62
2021/10/31 20:23:11;;;;;;;;;;;8.70;99.90;;;;;;8341740;28;19913;-62
2021/10/31 20:27:12;;;;;;;;;;;8.50;99.90;;;;;;8340613;28;19950;-62
2021/10/31 20:31:13;;;;;;;;;;;8.40;99.90;;;;;;8336372;28;19913;-62
2021/10/31 20:35:14;;;;;;;;;;;8.40;99.90;;;;;;8347492;28;19912;-62
2021/10/31 20:39:15;;;;;;;;;;;8.20;99.90;;;;;;8340613;28;19936;-62
2021/10/31 20:43:15;;;;;;;;;;;8.20;99.90;;;;;;8361512;28;19951;-64
2021/10/31 20:47:15;;;;;;;;;;;8.30;99.90;;;;;;8362869;28;19911;-62
2021/10/31 20:51:17;;;;;;;;;;;8.00;99.90;;;;;;8363414;28;19912;-62
2021/10/31 20:59:32;;;;;;;;;;;8.20;99.90;;;;;;8363125;28;19909;-63
2021/10/31 21:03:33;;;;;;;;;;;8.00;99.90;;;;;;8362674;28;20437;-62
2021/10/31 21:07:33;;;;;;;;;;;7.90;99.90;;;;;;8362987;28;19905;-62
2021/10/31 21:11:34;;;;;;;;;;;7.90;99.90;;;;;;8362887;28;19999;-63
2021/10/31 21:15:34;;;;;;;;;;;7.80;99.90;;;;;;8344959;28;19944;-62
2021/10/31 21:19:35;;;;;;;;;;;7.90;99.90;;;;;;8344852;28;19951;-63
2021/10/31 21:23:41;;;;;;;;;;;8.00;99.90;;;;;;8344999;28;19905;-62
2021/10/31 21:27:42;;;;;;;;;;;8.00;99.90;;;;;;8356491;28;20436;-62
2021/10/31 21:31:43;;;;;;;;;;;8.00;99.90;;;;;;8353965;28;19919;-64
2021/10/31 21:35:43;;;;;;;;;;;8.00;99.90;;;;;;8316813;28;19905;-63
2021/10/31 21:39:44;;;;;;;;;;;8.00;99.90;;;;;;8341830;28;19944;-62
2021/10/31 21:43:47;;;;;;;;;;;8.00;99.90;;;;;;8342012;28;19930;-63
2021/10/31 21:47:49;;;;;;;;;;;8.00;99.90;;;;;;8351593;28;19955;-62
2021/10/31 21:51:53;;;;;;;;;;;7.90;99.90;;;;;;8357318;28;19993;-62
2021/10/31 21:55:54;;;;;;;;;;;7.60;99.90;;;;;;8353319;28;20368;-62
2021/10/31 21:59:54;;;;;;;;;;;7.50;99.90;;;;;;8357586;28;19919;-63
2021/10/31 22:03:55;;;;;;;;;;;7.50;99.90;;;;;;8357606;28;19915;-62
2021/10/31 22:07:55;;;;;;;;;;;7.50;99.90;;;;;;8360647;28;19916;-62
2021/10/31 22:11:56;;;;;;;;;;;7.40;99.90;;;;;;8346262;28;19919;-62
2021/10/31 22:15:57;;;;;;;;;;;7.30;99.90;;;;;;8360942;28;19912;-63
2021/10/31 22:19:57;;;;;;;;;;;7.20;99.90;;;;;;8360655;28;20391;-62
2021/10/31 22:23:58;;;;;;;;;;;7.30;99.90;;;;;;8360904;28;19928;-62
2021/10/31 22:27:59;;;;;;;;;;;7.20;99.90;;;;;;8360804;28;20285;-63
2021/10/31 22:31:59;;;;;;;;;;;7.30;99.90;;;;;;8360385;28;20440;-63
2021/10/31 22:36:01;;;;;;;;;;;7.50;99.90;;;;;;8360728;28;19908;-62
2021/10/31 22:40:01;;;;;;;;;;;7.40;99.90;;;;;;8360267;28;19916;-62
2021/10/31 22:44:02;;;;;;;;;;;7.30;99.90;;;;;;8360422;28;19905;-62
2021/10/31 22:48:03;;;;;;;;;;;7.40;99.90;;;;;;8360187;28;19905;-62
2021/10/31 22:52:03;;;;;;;;;;;7.40;99.90;;;;;;8359682;28;19947;-62
2021/10/31 22:56:04;;;;;;;;;;;7.40;99.90;;;;;;8360307;28;19959;-64
2021/10/31 23:00:15;;;;;;;;;;;7.30;99.90;;;;;;8359684;28;19909;-62
2021/10/31 23:04:16;;;;;;;;;;;7.60;99.90;;;;;;8360012;28;20285;-62
2021/10/31 23:08:16;;;;;;;;;;;7.40;99.90;;;;;;8359900;28;19962;-62
2021/10/31 23:12:17;;;;;;;;;;;7.00;99.90;;;;;;8359724;28;19904;-62
2021/10/31 23:16:18;;;;;;;;;;;6.80;99.90;;;;;;8359840;28;20430;-62
2021/10/31 23:20:19;;;;;;;;;;;6.90;99.90;;;;;;8341476;28;20285;-62
2021/10/31 23:24:20;;;;;;;;;;;7.20;99.90;;;;;;8341834;28;19911;-63
2021/10/31 23:28:21;;;;;;;;;;;7.00;99.90;;;;;;8362134;28;19915;-62
2021/10/31 23:32:22;;;;;;;;;;;7.20;99.90;;;;;;8366129;28;19912;-63
2021/10/31 23:36:22;;;;;;;;;;;7.30;99.90;;;;;;8366375;28;20463;-62
2021/10/31 23:40:23;;;;;;;;;;;7.00;99.90;;;;;;8365700;28;20442;-62
2021/10/31 23:44:24;;;;;;;;;;;7.10;99.90;;;;;;8366023;28;20253;-63